Pratica Di Mare, Italy

11:29 PM CET del 09 Febbraio 2016 (GMT +0100)
Pomezia | | Change Station
CLOSE
Current Station
Stazione meteo personale
Location: Pomezia, LAZIO
Altitudine: 256 ft
Stazioni meteo nelle vicinanze

Alt. 256 ft 41.67 °N, 12.51 °E | Updated 4 minutes ago

Rain
Pioggia
56.8 °F
Sembra 56.8 °F
N
14.0
Vento Variabile Vento da SSE
Gusts 15.0 mph

Oggi
Massima -- | Minima -- °F
--% Possibilità di precip.
Ieri
Massima -- | Minima -- °F
Precip. -- in
Pressione 29.71 in
Visibilità 5.6 miglia
Nuvole Nubi sparse 1500 ft
Molto nuvoloso 2000 ft
Punto di rugiada 54 °F
Umidità 90%
Piovosità 0.00 in
Spessore del manto nevoso Non disponibile.
7:14 AM 5:35 PM
Luna nuova, 2% visible
METAR LIRA 092220Z 17013KT 9000 RA SCT015 BKN020 13/11 Q1006
Pressione 29.71 in
Visibilità 5.6 miglia
Nuvole Nubi sparse 1500 ft
Molto nuvoloso 2000 ft
Punto di rugiada 54 °F
Umidità 90%
Piovosità 0.00 in
Spessore del manto nevoso Non disponibile.
7:14 AM 5:35 PM
Luna nuova, 2% visible
METAR LIRA 092220Z 17013KT 9000 RA SCT015 BKN020 13/11 Q1006

10-Day Weather Forecast

Almanac

Astronomia

Feb. 09, 2016 Alba Tramonto
Ora attuale
Crepuscolo civile
Crepuscolo nautico
Crepuscolo astronomico
Luna
Estensione della luce visibile
Lunghezza del giorno
Tomorrow will be .
, % of the Moon is Illuminated

Gli estremi di oggi

Massime Regione Minime Regione

Community

WunderPhotos

Upload Photos

1,891,718 foto caricate!

WunderBlog® & News

Nearby

Qualità dell'aria

  Qualità dell'aria Indice AQ Inquinante
Not available.

Profondità neve

Stazione Profondità Altitudine

Attività sismica

Città  Distanza Mag. Data & Ora
Minimo Magnitudo Mostrato è 2.5.

Temperature delle acque costiere

Località Temperatura

Stations

Stazioni meteo nelle vicinanze

Ubicazione della stazione Temp. Raffreddamento del vento Punto di rugiada Umidità Vento Precip. Alt. Aggiornato Tipo